Time;durP1;ratioP1;P1;durP2;ratioP2;P2;SDS_P1;SDS_P2;PMS_P1;PMS_P2;Temp;Humidity;BMP_temperature;BMP_pressure;BME280_temperature;BME280_humidity;BME280_pressure;Samples;Min_cycle;Max_cycle;Signal;HPM_P1;HPM_P2
2022/01/15 00:01:31;;;;;;;43.65;26.75;;;;;;;2.68;100.00;99831.53;10423533;28;20047;-65
2022/01/15 00:06:36;;;;;;;41.42;26.30;;;;;;;2.68;100.00;99829.72;10404390;28;20065;-65
2022/01/15 00:11:39;;;;;;;37.33;23.33;;;;;;;2.70;100.00;99829.69;10416620;28;20044;-65
2022/01/15 00:16:48;;;;;;;36.08;23.40;;;;;;;2.64;100.00;99841.47;10414527;28;20053;-65
2022/01/15 00:21:52;;;;;;;33.72;22.17;;;;;;;2.61;100.00;99826.50;10427260;28;20069;-65
2022/01/15 00:26:56;;;;;;;35.10;22.10;;;;;;;2.58;100.00;99824.03;10422010;28;20121;-65
2022/01/15 00:32:00;;;;;;;39.53;22.95;;;;;;;2.56;100.00;99820.56;10403811;28;20056;-65
2022/01/15 00:37:05;;;;;;;36.42;22.50;;;;;;;2.55;100.00;99812.66;10415588;28;20051;-65
2022/01/15 00:42:09;;;;;;;40.17;23.20;;;;;;;2.49;100.00;99811.16;10411239;28;20496;-65
2022/01/15 00:47:12;;;;;;;38.58;23.08;;;;;;;2.49;100.00;99797.00;10411944;28;20051;-65
2022/01/15 00:52:17;;;;;;;38.55;23.23;;;;;;;2.48;100.00;99796.13;10409326;28;20206;-65
2022/01/15 00:57:20;;;;;;;39.50;23.88;;;;;;;2.47;100.00;99803.25;10416213;28;20045;-65
2022/01/15 01:02:23;;;;;;;36.78;22.63;;;;;;;2.46;100.00;99795.38;10413916;28;20123;-65
2022/01/15 01:07:27;;;;;;;41.65;23.83;;;;;;;2.46;100.00;99809.50;10419711;28;20090;-65
2022/01/15 01:12:45;;;;;;;41.95;24.60;;;;;;;2.42;100.00;99799.94;10413717;28;20040;-65
2022/01/15 01:23:10;;;;;;;37.28;23.17;;;;;;;2.45;100.00;99796.31;10397499;28;20311;-65
2022/01/15 01:28:20;;;;;;;38.05;23.52;;;;;;;2.46;100.00;99790.03;10395397;28;20076;-65
2022/01/15 01:33:33;;;;;;;36.83;23.30;;;;;;;2.44;100.00;99790.09;10413208;28;20132;-64
2022/01/15 01:38:43;;;;;;;37.25;23.48;;;;;;;2.45;100.00;99797.16;10412350;28;20053;-64
2022/01/15 01:43:51;;;;;;;36.90;23.35;;;;;;;2.45;100.00;99797.16;10415965;28;20144;-66
2022/01/15 01:48:56;;;;;;;38.35;23.85;;;;;;;2.44;100.00;99800.75;10404978;28;20049;-67
2022/01/15 01:54:02;;;;;;;35.20;23.60;;;;;;;2.44;100.00;99803.41;10401547;28;20375;-65
2022/01/15 01:59:07;;;;;;;34.35;22.55;;;;;;;2.44;100.00;99791.91;10422052;28;20051;-65
2022/01/15 02:04:10;;;;;;;40.38;24.23;;;;;;;2.43;100.00;99791.03;10392933;28;20049;-65
2022/01/15 02:09:14;;;;;;;37.35;22.98;;;;;;;2.43;100.00;99799.00;10410545;28;20045;-65
2022/01/15 02:14:28;;;;;;;35.88;22.83;;;;;;;2.45;100.00;99791.81;10418687;28;20047;-66
2022/01/15 02:19:34;;;;;;;35.40;23.30;;;;;;;2.48;100.00;99782.81;10421962;28;20044;-65
2022/01/15 02:24:37;;;;;;;38.08;22.52;;;;;;;2.44;100.00;99771.47;10420615;28;20045;-67
2022/01/15 02:29:40;;;;;;;34.10;21.85;;;;;;;2.45;100.00;99770.53;10427428;28;20642;-65
2022/01/15 02:34:45;;;;;;;36.88;22.33;;;;;;;2.44;100.00;99758.19;10435722;28;20046;-65
2022/01/15 02:39:48;;;;;;;38.58;23.27;;;;;;;2.43;100.00;99761.78;10435625;28;20119;-65
2022/01/15 02:44:58;;;;;;;33.03;22.35;;;;;;;2.44;100.00;99763.50;10420171;28;20433;-65
2022/01/15 02:50:02;;;;;;;35.13;22.73;;;;;;;2.43;100.00;99759.13;10430092;28;20445;-65
2022/01/15 02:55:06;;;;;;;36.78;23.73;;;;;;;2.45;100.00;99754.59;10420353;28;20098;-65
2022/01/15 03:00:16;;;;;;;39.65;24.67;;;;;;;2.50;100.00;99745.53;10427791;28;20659;-65
2022/01/15 03:05:21;;;;;;;37.28;23.45;;;;;;;2.50;100.00;99740.19;10421372;28;20056;-65
2022/01/15 03:10:24;;;;;;;36.97;24.50;;;;;;;2.49;100.00;99734.00;10427812;28;20053;-66
2022/01/15 03:15:29;;;;;;;36.00;24.75;;;;;;;2.52;100.00;99730.34;10430954;28;20048;-65
2022/01/15 03:20:36;;;;;;;34.15;24.27;;;;;;;2.54;100.00;99731.09;10416334;28;20111;-65
2022/01/15 03:25:40;;;;;;;30.27;22.50;;;;;;;2.57;100.00;99723.84;10401774;28;20056;-65
2022/01/15 03:30:44;;;;;;;29.50;21.77;;;;;;;2.61;100.00;99724.56;10412916;28;20497;-66
2022/01/15 03:35:49;;;;;;;28.98;21.92;;;;;;;2.62;100.00;99720.97;10412587;28;20052;-65
2022/01/15 03:40:54;;;;;;;31.27;23.25;;;;;;;2.62;100.00;99713.81;10407889;28;20056;-65
2022/01/15 03:45:57;;;;;;;30.38;22.88;;;;;;;2.63;100.00;99720.03;10426232;28;20103;-65
2022/01/15 03:51:03;;;;;;;28.70;21.20;;;;;;;2.64;100.00;99723.53;10410332;28;20041;-65
2022/01/15 03:56:06;;;;;;;26.70;20.30;;;;;;;2.59;100.00;99710.47;10443189;22;20057;-60
2022/01/15 04:01:10;;;;;;;30.15;20.95;;;;;;;2.53;100.00;99716.09;10425079;28;20068;-59
2022/01/15 04:06:15;;;;;;;33.75;23.00;;;;;;;2.47;100.00;99715.47;10430867;28;20534;-60
2022/01/15 04:11:18;;;;;;;36.83;24.75;;;;;;;2.45;100.00;99701.38;10428080;28;20507;-58
2022/01/15 04:16:23;;;;;;;37.50;25.52;;;;;;;2.43;100.00;99695.28;10424250;28;20369;-59
2022/01/15 04:21:28;;;;;;;36.25;25.27;;;;;;;2.43;100.00;99702.41;10426077;28;20509;-59
2022/01/15 04:26:32;;;;;;;38.70;26.27;;;;;;;2.40;100.00;99700.78;10418775;28;20053;-55
2022/01/15 04:31:46;;;;;;;38.65;25.35;;;;;;;2.38;100.00;99702.63;10428497;28;20041;-53
2022/01/15 04:36:53;;;;;;;36.45;24.92;;;;;;;2.37;100.00;99697.38;10397279;28;20052;-56
2022/01/15 04:41:56;;;;;;;39.28;25.63;;;;;;;2.31;100.00;99694.09;10421739;28;20045;-55
2022/01/15 04:47:00;;;;;;;39.67;25.00;;;;;;;2.27;100.00;99692.53;10428116;28;20082;-55
2022/01/15 04:52:06;;;;;;;46.17;27.95;;;;;;;2.23;100.00;99700.75;10423059;28;20099;-55
2022/01/15 04:57:09;;;;;;;46.50;29.48;;;;;;;2.26;100.00;99706.75;10426210;28;20061;-53
2022/01/15 05:02:12;;;;;;;46.60;29.30;;;;;;;2.27;100.00;99703.16;10430243;28;20041;-55
2022/01/15 05:07:16;;;;;;;44.72;28.55;;;;;;;2.28;100.00;99704.03;10412355;28;20052;-53
2022/01/15 05:12:31;;;;;;;41.25;27.27;;;;;;;2.28;100.00;99694.25;10422657;28;20391;-56
2022/01/15 05:17:34;;;;;;;41.00;26.95;;;;;;;2.28;100.00;99696.91;10418042;28;20045;-53
2022/01/15 05:22:39;;;;;;;39.60;25.30;;;;;;;2.27;100.00;99686.38;10414213;28;20487;-53
2022/01/15 05:27:44;;;;;;;37.17;25.05;;;;;;;2.27;100.00;99686.38;10409241;28;20050;-51
2022/01/15 05:32:47;;;;;;;39.78;25.48;;;;;;;2.21;100.00;99676.03;10406190;28;20152;-53
2022/01/15 05:37:52;;;;;;;38.65;24.65;;;;;;;2.21;100.00;99676.91;10408922;28;20493;-53
2022/01/15 05:42:55;;;;;;;36.80;23.90;;;;;;;2.18;100.00;99681.47;10404286;28;20294;-56
2022/01/15 05:47:59;;;;;;;42.20;25.38;;;;;;;2.13;100.00;99673.75;10410144;28;20299;-55
2022/01/15 05:53:04;;;;;;;43.72;25.85;;;;;;;2.05;100.00;99671.50;10410976;28;20504;-53
2022/01/15 05:58:08;;;;;;;45.63;26.42;;;;;;;2.01;100.00;99667.25;10405972;28;20083;-52
2022/01/15 06:03:11;;;;;;;50.20;28.05;;;;;;;1.93;100.00;99670.28;10417800;28;20063;-54
2022/01/15 06:08:16;;;;;;;55.33;30.27;;;;;;;1.88;100.00;99668.78;10415263;28;20041;-55
2022/01/15 06:13:19;;;;;;;56.75;28.23;;;;;;;1.87;100.00;99680.34;10418862;28;20048;-52
2022/01/15 06:18:22;;;;;;;53.72;30.52;;;;;;;1.82;100.00;99673.44;10437994;28;20051;-55
2022/01/15 06:23:27;;;;;;;56.05;30.02;;;;;;;1.77;100.00;99667.53;10425935;28;20045;-55
2022/01/15 06:28:30;;;;;;;49.90;29.40;;;;;;;1.77;100.00;99667.53;10433267;28;20045;-53
2022/01/15 06:33:34;;;;;;;50.25;29.05;;;;;;;1.74;100.00;99670.31;10432774;28;20063;-52
2022/01/15 06:38:38;;;;;;;54.25;31.38;;;;;;;1.73;100.00;99676.56;10435710;28;20052;-53
2022/01/15 06:43:42;;;;;;;48.90;29.83;;;;;;;1.77;100.00;99688.78;10441774;28;20037;-53
2022/01/15 06:48:45;;;;;;;38.90;25.23;;;;;;;1.80;100.00;99685.97;10412026;28;20854;-53
2022/01/15 06:53:50;;;;;;;49.55;29.20;;;;;;;1.79;100.00;99694.88;10412664;28;20041;-53
2022/01/15 06:58:54;;;;;;;46.10;28.50;;;;;;;1.85;100.00;99702.53;10415852;28;20053;-53
2022/01/15 07:03:57;;;;;;;51.33;28.70;;;;;;;1.84;100.00;99705.28;10387473;28;20491;-56
2022/01/15 07:09:02;;;;;;;42.17;26.90;;;;;;;1.83;100.00;99707.06;10416130;28;20037;-52
2022/01/15 07:14:05;;;;;;;48.95;29.17;;;;;;;1.81;100.00;99701.00;10420041;28;20030;-52
2022/01/15 07:19:08;;;;;;;45.72;29.17;;;;;;;1.79;100.00;99710.81;10435478;28;20040;-53
2022/01/15 07:24:13;;;;;;;42.72;28.13;;;;;;;1.78;100.00;99717.06;10435984;28;20037;-53
2022/01/15 07:29:17;;;;;;;46.03;28.85;;;;;;;1.80;100.00;99725.84;10429220;28;20424;-58
2022/01/15 07:34:20;;;;;;;46.00;28.25;;;;;;;1.80;100.00;99714.34;10425295;28;20447;-58
2022/01/15 07:39:27;;;;;;;48.95;29.15;;;;;;;1.80;100.00;99720.53;10424011;28;20037;-54
2022/01/15 07:44:31;;;;;;;43.38;28.88;;;;;;;1.83;100.00;99714.19;10413433;28;20537;-55
2022/01/15 07:49:35;;;;;;;44.83;29.10;;;;;;;1.84;100.00;99711.44;10412286;28;20175;-58
2022/01/15 07:54:41;;;;;;;45.63;30.60;;;;;;;1.88;100.00;99706.00;10413154;28;20052;-56
2022/01/15 07:59:44;;;;;;;56.90;36.15;;;;;;;1.94;100.00;99697.75;10408639;28;20053;-57
2022/01/15 08:04:48;;;;;;;42.08;28.67;;;;;;;1.98;100.00;99708.16;10406300;28;20041;-57
2022/01/15 08:09:53;;;;;;;42.15;29.83;;;;;;;2.03;100.00;99704.38;10414764;28;20136;-50
2022/01/15 08:14:56;;;;;;;40.10;28.58;;;;;;;2.09;100.00;99710.25;10419855;28;20120;-52
2022/01/15 08:20:00;;;;;;;39.45;25.95;;;;;;;2.12;100.00;99723.41;10423317;28;20052;-50
2022/01/15 08:25:05;;;;;;;38.22;28.23;;;;;;;2.13;100.00;99705.66;10434380;28;20041;-55
2022/01/15 08:30:10;;;;;;;35.95;28.00;;;;;;;2.22;100.00;99717.63;10432748;28;20064;-57
2022/01/15 08:35:14;;;;;;;34.78;25.52;;;;;;;2.29;100.00;99708.44;10423661;28;20071;-53
2022/01/15 08:40:20;;;;;;;35.00;24.63;;;;;;;2.36;100.00;99717.81;10419844;28;20404;-58
2022/01/15 08:45:23;;;;;;;28.70;22.75;;;;;;;2.41;100.00;99698.97;10425929;28;20560;-51
2022/01/15 08:50:29;;;;;;;24.30;19.75;;;;;;;2.48;100.00;99695.03;10430506;28;20120;-56
2022/01/15 08:55:39;;;;;;;26.85;21.17;;;;;;;2.54;100.00;99700.06;10426340;28;20045;-54
2022/01/15 09:00:47;;;;;;;24.15;19.45;;;;;;;2.62;100.00;99711.16;10353899;28;20557;-56
2022/01/15 09:05:52;;;;;;;20.80;17.90;;;;;;;2.61;100.00;99711.25;10370055;28;20387;-57
2022/01/15 09:10:59;;;;;;;24.50;19.60;;;;;;;2.64;100.00;99716.41;10348937;28;20045;-51
2022/01/15 09:16:07;;;;;;;26.65;20.88;;;;;;;2.72;100.00;99714.22;10355210;28;20080;-51
2022/01/15 09:21:21;;;;;;;27.85;21.30;;;;;;;2.78;100.00;99716.53;10362787;28;20042;-52
2022/01/15 09:31:48;;;;;;;24.60;19.75;;;;;;;2.91;100.00;99729.22;10364408;28;20528;-54
2022/01/15 09:36:56;;;;;;;24.73;20.13;;;;;;;3.00;100.00;99719.88;10347904;28;20038;-54
2022/01/15 09:42:09;;;;;;;23.25;19.60;;;;;;;3.02;100.00;99718.00;10362856;28;20517;-58
2022/01/15 09:47:21;;;;;;;22.60;19.83;;;;;;;3.08;100.00;99718.56;10357952;28;20548;-54
2022/01/15 09:52:35;;;;;;;21.75;18.13;;;;;;;3.17;100.00;99713.66;10361244;28;20046;-51
2022/01/15 09:57:42;;;;;;;19.92;17.75;;;;;;;3.23;100.00;99713.34;10369804;28;20056;-57
2022/01/15 10:02:51;;;;;;;22.10;18.90;;;;;;;3.30;100.00;99713.84;10392164;28;20069;-55
2022/01/15 10:08:01;;;;;;;21.45;18.73;;;;;;;3.38;100.00;99715.16;10415557;28;20053;-55
2022/01/15 10:13:24;;;;;;;22.13;18.80;;;;;;;3.49;100.00;99703.06;10422482;28;20493;-58
2022/01/15 10:18:30;;;;;;;22.48;19.08;;;;;;;3.59;100.00;99704.25;10417676;28;20096;-54
2022/01/15 10:23:48;;;;;;;20.33;17.98;;;;;;;3.64;100.00;99701.38;10430132;28;20086;-56
2022/01/15 10:28:56;;;;;;;22.48;17.33;;;;;;;3.66;100.00;99688.78;10428631;28;20052;-57
2022/01/15 10:34:01;;;;;;;17.65;15.73;;;;;;;3.73;100.00;99683.97;10432259;28;20413;-57
2022/01/15 10:39:16;;;;;;;17.58;15.35;;;;;;;3.83;100.00;99690.50;10429330;28;20095;-58
2022/01/15 10:44:34;;;;;;;15.82;14.15;;;;;;;3.92;100.00;99684.69;10427145;28;20044;-59
2022/01/15 10:49:40;;;;;;;16.75;14.95;;;;;;;4.00;100.00;99682.41;10426373;28;20041;-56
2022/01/15 10:55:09;;;;;;;14.20;12.70;;;;;;;4.06;100.00;99677.69;10430637;28;20409;-59
2022/01/15 11:00:17;;;;;;;13.85;12.43;;;;;;;4.12;100.00;99664.84;10422317;28;20502;-56
2022/01/15 11:05:34;;;;;;;12.48;11.18;;;;;;;4.15;100.00;99647.81;10417148;28;20045;-57
2022/01/15 11:10:38;;;;;;;15.07;12.20;;;;;;;4.27;100.00;99657.75;10419531;28;20046;-56
2022/01/15 11:15:45;;;;;;;19.27;15.75;;;;;;;4.35;100.00;99643.94;10419166;28;20335;-56
2022/01/15 11:20:51;;;;;;;16.98;14.02;;;;;;;4.41;100.00;99627.59;10418479;28;20051;-55
2022/01/15 11:25:56;;;;;;;13.77;12.23;;;;;;;4.51;100.00;99621.69;10411905;28;20044;-57
2022/01/15 11:31:03;;;;;;;9.98;8.98;;;;;;;4.56;100.00;99609.78;10410569;28;20045;-58
2022/01/15 11:36:11;;;;;;;10.68;9.68;;;;;;;4.63;100.00;99610.25;10425872;28;20147;-56
2022/01/15 11:41:38;;;;;;;8.68;7.32;;;;;;;4.68;100.00;99607.31;10426810;28;20499;-57
2022/01/15 11:46:47;;;;;;;2.65;2.40;;;;;;;4.66;100.00;99577.19;10427187;28;20111;-54
2022/01/15 11:51:50;;;;;;;5.70;5.13;;;;;;;4.61;100.00;99581.00;10432919;28;20063;-54
2022/01/15 11:56:53;;;;;;;3.05;2.42;;;;;;;4.56;100.00;99577.75;10423293;28;20431;-54
2022/01/15 12:01:59;;;;;;;1.95;1.80;;;;;;;4.55;100.00;99562.69;10408617;28;20072;-57
2022/01/15 12:07:19;;;;;;;4.38;3.97;;;;;;;4.55;100.00;99562.69;10419423;28;20060;-57
2022/01/15 12:12:53;;;;;;;2.00;1.80;;;;;;;4.54;100.00;99563.63;10408077;28;20049;-54
2022/01/15 12:18:00;;;;;;;3.20;2.65;;;;;;;4.53;100.00;99547.72;10342663;28;20063;-56
2022/01/15 12:23:06;;;;;;;3.20;2.63;;;;;;;4.58;100.00;99535.81;10435452;28;20083;-56
2022/01/15 12:28:13;;;;;;;3.05;2.78;;;;;;;4.60;100.00;99536.59;10420710;28;20043;-55
2022/01/15 12:33:20;;;;;;;5.55;4.45;;;;;;;4.61;100.00;99534.75;10404523;28;20045;-57
2022/01/15 12:38:33;;;;;;;5.28;4.75;;;;;;;4.59;100.00;99524.19;10423658;28;20098;-57
2022/01/15 12:43:38;;;;;;;4.22;3.17;;;;;;;4.60;100.00;99498.34;10433228;28;20123;-54
2022/01/15 12:48:44;;;;;;;2.72;2.53;;;;;;;4.62;100.00;99497.31;10431155;28;20045;-57
2022/01/15 12:53:50;;;;;;;2.53;2.33;;;;;;;4.61;100.00;99494.72;10431953;28;20516;-54
2022/01/15 12:58:54;;;;;;;2.20;2.00;;;;;;;4.59;100.00;99489.47;10423531;28;20057;-56
2022/01/15 13:04:00;;;;;;;1.60;1.50;;;;;;;4.59;100.00;99485.94;10413173;28;20551;-56
2022/01/15 13:09:03;;;;;;;3.50;2.17;;;;;;;4.52;100.00;99468.63;10431479;28;20120;-57
2022/01/15 13:14:07;;;;;;;2.50;2.30;;;;;;;4.45;100.00;99463.69;10427584;28;20071;-54
2022/01/15 13:19:12;;;;;;;2.28;1.90;;;;;;;4.41;100.00;99455.97;10432789;28;20057;-53
2022/01/15 13:24:15;;;;;;;2.30;2.10;;;;;;;4.38;100.00;99461.50;10431261;28;20072;-58
2022/01/15 13:29:23;;;;;;;2.17;1.80;;;;;;;4.41;100.00;99458.63;10423372;28;20073;-55
2022/01/15 13:34:32;;;;;;;2.40;2.20;;;;;;;4.39;100.00;99444.53;10425644;28;20041;-55
2022/01/15 13:39:36;;;;;;;2.47;2.28;;;;;;;4.29;100.00;99442.41;10426498;28;20052;-54
2022/01/15 13:44:40;;;;;;;2.40;2.20;;;;;;;4.26;100.00;99431.97;10414631;28;20584;-56
2022/01/15 13:55:08;;;;;;;2.30;2.10;;;;;;;4.15;100.00;99434.44;10424599;28;20063;-55
2022/01/15 14:00:19;;;;;;;2.70;2.40;;;;;;;4.20;100.00;99419.00;10421528;28;20087;-54
2022/01/15 14:05:24;;;;;;;2.55;2.35;;;;;;;4.20;100.00;99412.81;10414141;28;20091;-55
2022/01/15 14:10:29;;;;;;;5.45;2.80;;;;;;;4.20;100.00;99402.97;10402740;28;20052;-57
2022/01/15 14:15:33;;;;;;;3.42;3.10;;;;;;;4.15;100.00;99395.28;10420517;28;20755;-57
2022/01/15 14:21:16;;;;;;;3.40;3.10;;;;;;;4.18;100.00;99394.22;10412657;28;20056;-56
2022/01/15 14:26:19;;;;;;;;;;;;;;;3.99;100.00;99397.19;10423922;28;20497;-53
2022/01/15 14:31:27;;;;;;;3.35;3.05;;;;;;;4.07;100.00;99386.03;10432675;28;20309;-54
2022/01/15 14:36:31;;;;;;;3.33;3.03;;;;;;;4.03;100.00;99387.19;10422041;28;20047;-55
2022/01/15 14:41:36;;;;;;;2.88;2.60;;;;;;;3.95;100.00;99391.19;10426886;28;20041;-55
2022/01/15 14:46:39;;;;;;;3.67;2.60;;;;;;;3.97;100.00;99383.94;10425547;28;20055;-56
2022/01/15 14:51:44;;;;;;;3.78;3.40;;;;;;;3.98;100.00;99384.81;10430091;28;20437;-57
2022/01/15 14:56:47;;;;;;;3.20;2.90;;;;;;;3.90;100.00;99390.63;10430979;28;20052;-55
2022/01/15 15:01:50;;;;;;;3.70;2.88;;;;;;;3.87;100.00;99382.81;10434319;28;20132;-57
2022/01/15 15:06:55;;;;;;;3.85;3.15;;;;;;;3.82;100.00;99379.59;10410945;28;20505;-54
2022/01/15 15:12:00;;;;;;;4.82;4.32;;;;;;;3.80;100.00;99368.16;10423854;28;20049;-59
2022/01/15 15:17:04;;;;;;;3.95;3.22;;;;;;;3.75;100.00;99370.22;10417441;28;20055;-53
2022/01/15 15:22:08;;;;;;;4.47;4.00;;;;;;;3.70;100.00;99368.69;10416430;28;20064;-57
2022/01/15 15:27:14;;;;;;;5.47;3.78;;;;;;;3.65;100.00;99360.16;10429500;28;20048;-58
2022/01/15 15:32:17;;;;;;;5.13;2.90;;;;;;;3.53;100.00;99363.56;10431340;28;20063;-56
2022/01/15 15:37:22;;;;;;;3.60;2.83;;;;;;;3.39;100.00;99359.91;10434809;28;20064;-57
2022/01/15 15:42:25;;;;;;;5.30;3.75;;;;;;;3.33;100.00;99370.06;10428023;28;20049;-55
2022/01/15 15:47:31;;;;;;;6.68;5.25;;;;;;;3.27;100.00;99373.13;10429681;28;20306;-57
2022/01/15 15:52:36;;;;;;;5.05;4.35;;;;;;;3.18;100.00;99377.19;10431286;28;20051;-57
2022/01/15 15:57:41;;;;;;;5.43;4.15;;;;;;;3.07;100.00;99373.34;10439491;23;20369;-76
2022/01/15 16:02:44;;;;;;;4.18;3.50;;;;;;;3.02;100.00;99379.88;10427569;28;20037;-78
2022/01/15 16:07:49;;;;;;;4.93;3.78;;;;;;;2.98;100.00;99373.91;10422934;28;20073;-78
2022/01/15 16:12:53;;;;;;;7.10;5.38;;;;;;;2.95;100.00;99384.72;10398216;28;20057;-79
2022/01/15 16:17:56;;;;;;;5.05;4.13;;;;;;;2.88;100.00;99388.69;10444277;28;20101;-77
2022/01/15 16:23:00;;;;;;;5.72;4.05;;;;;;;2.84;100.00;99395.97;10439654;28;20404;-77
2022/01/15 16:28:05;;;;;;;5.38;4.13;;;;;;;2.80;100.00;99386.47;10431279;28;20604;-78
2022/01/15 16:33:28;;;;;;;4.90;4.30;;;;;;;2.75;100.00;99386.72;10424949;28;20124;-78
2022/01/15 16:38:34;;;;;;;5.07;3.95;;;;;;;2.71;100.00;99387.84;10422351;28;20465;-77
2022/01/15 16:43:37;;;;;;;4.57;3.80;;;;;;;2.69;100.00;99386.22;10398947;28;20053;-76
2022/01/15 16:48:40;;;;;;;5.75;4.47;;;;;;;2.62;100.00;99388.38;10430280;28;20045;-78
2022/01/15 16:53:45;;;;;;;7.05;5.55;;;;;;;2.55;100.00;99377.22;10423768;28;20382;-79
2022/01/15 16:58:48;;;;;;;7.72;6.25;;;;;;;2.38;100.00;99364.88;10435059;28;20048;-79
2022/01/15 17:03:51;;;;;;;9.85;6.88;;;;;;;2.30;100.00;99359.97;10408673;28;20056;-79
2022/01/15 17:08:56;;;;;;;8.40;6.50;;;;;;;2.18;100.00;99344.69;10425470;28;20049;-79
2022/01/15 17:13:59;;;;;;;6.50;5.38;;;;;;;2.14;100.00;99346.69;10421717;28;20029;-80
2022/01/15 17:19:02;;;;;;;7.95;5.78;;;;;;;1.99;100.00;99329.78;10434968;28;20053;-78
2022/01/15 17:24:07;;;;;;;22.67;13.98;;;;;;;1.89;100.00;99328.53;10434408;28;20122;-80
2022/01/15 17:29:10;;;;;;;28.55;11.02;;;;;;;1.84;100.00;99322.63;10411293;28;20072;-79
2022/01/15 17:34:13;;;;;;;57.28;28.98;;;;;;;1.75;100.00;99307.19;10425696;28;20049;-77
2022/01/15 17:39:17;;;;;;;38.25;23.08;;;;;;;1.66;100.00;99306.72;10421901;28;20497;-77
2022/01/15 17:44:20;;;;;;;11.52;9.65;;;;;;;1.53;100.00;99298.59;10440848;28;20051;-76
2022/01/15 17:49:27;;;;;;;15.50;10.00;;;;;;;1.44;100.00;99295.56;10421904;28;20064;-77
2022/01/15 17:54:31;;;;;;;25.70;16.98;;;;;;;1.34;100.00;99282.78;10434335;28;20435;-77
2022/01/15 17:59:34;;;;;;;50.55;29.73;;;;;;;1.22;100.00;99284.28;10424253;28;20060;-80
2022/01/15 18:04:38;;;;;;;36.30;23.20;;;;;;;1.13;100.00;99284.75;10428273;28;20063;-75
2022/01/15 18:09:42;;;;;;;33.55;21.05;;;;;;;1.04;100.00;99278.16;10443168;28;20053;-76
2022/01/15 18:14:49;;;;;;;26.13;17.25;;;;;;;0.91;100.00;99280.56;10441159;28;20047;-77
2022/01/15 18:19:53;;;;;;;25.55;16.75;;;;;;;0.84;100.00;99284.47;10418252;28;20054;-74
2022/01/15 18:24:57;;;;;;;28.77;19.77;;;;;;;0.76;100.00;99287.50;10417725;28;20048;-77
2022/01/15 18:30:00;;;;;;;27.08;19.30;;;;;;;0.67;100.00;99276.50;10415611;28;20413;-76
2022/01/15 18:35:19;;;;;;;21.30;12.80;;;;;;;0.58;100.00;99268.09;10428902;28;20053;-74
2022/01/15 18:40:24;;;;;;;29.85;19.73;;;;;;;0.52;100.00;99267.53;10434460;28;20045;-77
2022/01/15 18:45:27;;;;;;;17.77;12.45;;;;;;;0.48;100.00;99272.13;10433997;28;20041;-79
2022/01/15 18:50:32;;;;;;;19.83;13.68;;;;;;;0.49;100.00;99272.97;10439718;28;20037;-77
2022/01/15 18:55:36;;;;;;;16.95;12.70;;;;;;;0.34;100.00;99272.81;10439883;28;20402;-78
2022/01/15 19:00:39;;;;;;;19.83;14.57;;;;;;;0.32;100.00;99265.84;10440287;28;20480;-77
2022/01/15 19:05:54;;;;;;;21.63;15.00;;;;;;;0.26;100.00;99261.72;10428395;28;20865;-76
2022/01/15 19:11:02;;;;;;;27.80;18.77;;;;;;;0.22;100.00;99276.91;10433073;28;20501;-79
2022/01/15 19:16:08;;;;;;;21.80;15.95;;;;;;;0.14;100.00;99303.78;10418606;28;20052;-77
2022/01/15 19:21:13;;;;;;;23.33;15.18;;;;;;;0.11;100.00;99326.94;10410597;28;20053;-76
2022/01/15 19:26:17;;;;;;;48.35;33.60;;;;;;;0.11;100.00;99316.31;10427205;28;20503;-78
2022/01/15 19:31:21;;;;;;;26.27;17.50;;;;;;;0.09;100.00;99228.09;10442138;28;20041;-76
2022/01/15 19:36:24;;;;;;;20.52;14.63;;;;;;;0.07;100.00;99203.47;10422723;28;20116;-79
2022/01/15 19:41:28;;;;;;;18.40;13.70;;;;;;;0.03;100.00;99197.47;10434449;28;20053;-79
2022/01/15 19:46:31;;;;;;;18.25;13.07;;;;;;;-0.03;100.00;99152.75;10431022;28;20111;-78
2022/01/15 19:51:34;;;;;;;23.17;14.15;;;;;;;-0.07;100.00;99175.88;10410560;28;20057;-79
2022/01/15 19:56:38;;;;;;;21.98;14.88;;;;;;;-0.12;100.00;99182.34;10424102;28;20535;-80
2022/01/15 20:01:41;;;;;;;20.67;14.88;;;;;;;-0.19;100.00;99193.22;10441587;28;20068;-78
2022/01/15 20:06:47;;;;;;;24.52;16.85;;;;;;;-0.27;100.00;99153.00;10445503;28;20063;-80
2022/01/15 20:11:53;;;;;;;22.15;15.82;;;;;;;-0.32;100.00;99158.53;10454043;28;20055;-80
2022/01/15 20:17:07;;;;;;;25.05;15.75;;;;;;;-0.38;100.00;99195.03;10438919;28;20037;-79
2022/01/15 20:22:10;;;;;;;28.55;17.88;;;;;;;-0.40;100.00;99176.56;10449781;28;20051;-79
2022/01/15 20:27:15;;;;;;;25.25;17.33;;;;;;;-0.42;100.00;99178.44;10434034;28;20135;-77
2022/01/15 20:32:18;;;;;;;34.50;21.40;;;;;;;-0.46;100.00;99147.75;10440683;28;20044;-77
2022/01/15 20:37:22;;;;;;;38.40;26.05;;;;;;;-0.51;100.00;99145.31;10439981;28;20049;-77
2022/01/15 20:42:27;;;;;;;28.90;20.60;;;;;;;-0.55;100.00;99158.78;10437279;28;20048;-80
2022/01/15 20:47:30;;;;;;;32.58;22.77;;;;;;;-0.59;100.00;99187.19;10438556;28;20513;-79
2022/01/15 20:52:34;;;;;;;30.98;20.50;;;;;;;-0.64;100.00;99176.78;10435983;28;20053;-82
2022/01/15 20:57:40;;;;;;;30.88;20.85;;;;;;;-0.72;100.00;99168.34;10433495;28;20049;-79
2022/01/15 21:02:43;;;;;;;30.98;19.38;;;;;;;-0.74;100.00;99149.03;10430194;28;20147;-79
2022/01/15 21:07:46;;;;;;;29.73;19.25;;;;;;;-0.77;100.00;99175.66;10438583;28;20071;-77
2022/01/15 21:12:51;;;;;;;31.88;20.98;;;;;;;-0.84;100.00;99163.63;10419293;28;20055;-76
2022/01/15 21:17:55;;;;;;;28.88;19.45;;;;;;;-0.91;100.00;99163.06;10431070;28;20852;-75
2022/01/15 21:22:59;;;;;;;30.77;18.52;;;;;;;-0.97;100.00;99156.25;10439154;28;20037;-76
2022/01/15 21:28:05;;;;;;;29.55;18.42;;;;;;;-1.02;100.00;99165.34;10426552;28;20033;-77
2022/01/15 21:33:10;;;;;;;33.78;18.27;;;;;;;-1.10;100.00;99161.25;10419442;28;20049;-78
2022/01/15 21:38:14;;;;;;;30.70;18.55;;;;;;;-1.13;100.00;99163.19;10435857;28;20141;-78
2022/01/15 21:43:21;;;;;;;31.13;18.42;;;;;;;-1.17;100.00;99161.59;10436425;28;20049;-77
2022/01/15 21:48:25;;;;;;;28.80;19.10;;;;;;;-1.29;100.00;99152.41;10440741;28;20103;-78
2022/01/15 21:53:28;;;;;;;24.77;17.38;;;;;;;-1.36;100.00;99148.34;10428462;28;20041;-78
2022/01/15 21:58:32;;;;;;;28.13;18.48;;;;;;;-1.46;100.00;99153.16;10437993;28;20057;-77
2022/01/15 22:03:35;;;;;;;29.52;18.52;;;;;;;-1.52;100.00;99156.94;10438426;28;20045;-76
2022/01/15 22:08:40;;;;;;;29.33;18.42;;;;;;;-1.56;100.00;99161.50;10437210;28;20041;-78
2022/01/15 22:13:44;;;;;;;26.60;17.58;;;;;;;-1.61;100.00;99158.22;10421075;28;20408;-76
2022/01/15 22:18:48;;;;;;;29.77;18.73;;;;;;;-1.64;100.00;99139.84;10432450;28;20051;-76
2022/01/15 22:23:51;;;;;;;30.73;18.63;;;;;;;-1.66;100.00;99143.47;10416455;28;20053;-79
2022/01/15 22:29:02;;;;;;;31.30;19.88;;;;;;;-1.67;100.00;99155.81;10407552;28;20038;-77
2022/01/15 22:34:05;;;;;;;33.42;19.30;;;;;;;-1.66;100.00;99156.69;10403250;28;20540;-78
2022/01/15 22:39:08;;;;;;;28.00;18.08;;;;;;;-1.68;100.00;99159.38;10409950;28;20043;-76
2022/01/15 22:44:12;;;;;;;26.80;17.40;;;;;;;-1.70;100.00;99158.59;10423054;28;20037;-75
2022/01/15 22:49:15;;;;;;;27.17;18.60;;;;;;;-1.69;100.00;99152.38;10423366;28;20037;-78
2022/01/15 22:54:19;;;;;;;27.42;18.70;;;;;;;-1.68;100.00;99140.03;10422505;28;20064;-76
2022/01/15 22:59:23;;;;;;;30.05;19.55;;;;;;;-1.66;100.00;99138.19;10413350;28;20054;-75
2022/01/15 23:04:27;;;;;;;23.15;16.50;;;;;;;-1.71;100.00;99141.88;10419563;28;20048;-75
2022/01/15 23:09:30;;;;;;;22.67;16.60;;;;;;;-1.73;100.00;99141.09;10413263;28;20045;-75
2022/01/15 23:14:35;;;;;;;23.58;16.80;;;;;;;-1.75;100.00;99118.31;10429380;28;20068;-75
2022/01/15 23:19:38;;;;;;;21.83;16.52;;;;;;;-1.77;100.00;99122.78;10426069;28;20069;-76
2022/01/15 23:24:42;;;;;;;24.05;16.85;;;;;;;-1.79;100.00;99106.16;10417601;28;20266;-74
2022/01/15 23:29:46;;;;;;;22.67;16.77;;;;;;;-1.79;100.00;99103.50;10398516;28;20046;-74